Time;durP1;ratioP1;P1;durP2;ratioP2;P2;SDS_P1;SDS_P2;PMS_P1;PMS_P2;Temp;Humidity;BMP_temperature;BMP_pressure;BME280_temperature;BME280_humidity;BME280_pressure;Samples;Min_cycle;Max_cycle;Signal;HPM_P1;HPM_P2
2021/03/26 00:00:34;;;;;;;20.23;9.45;;;;;;;4.56;100.00;96528.06;1036311;28;20006;-58
2021/03/26 00:01:08;;;;;;;17.35;8.80;;;;;;;4.60;100.00;96549.69;1036400;28;20005;-59
2021/03/26 00:01:41;;;;;;;20.50;9.27;;;;;;;4.60;100.00;96539.19;1036342;28;20154;-59
2021/03/26 00:02:13;;;;;;;20.77;9.90;;;;;;;4.57;100.00;96548.16;1036187;28;20092;-57
2021/03/26 00:02:43;;;;;;;15.55;8.40;;;;;;;4.56;100.00;96554.38;1032085;28;20084;-59
2021/03/26 00:03:17;;;;;;;15.82;8.55;;;;;;;4.56;100.00;96543.03;1032310;28;20542;-59
2021/03/26 00:03:49;;;;;;;17.00;9.85;;;;;;;4.58;100.00;96547.22;1036206;28;20014;-58
2021/03/26 00:04:20;;;;;;;19.50;9.45;;;;;;;4.50;100.00;96539.09;1032320;28;20018;-58
2021/03/26 00:04:50;;;;;;;22.25;9.40;;;;;;;4.60;100.00;96555.81;1040282;28;20381;-59
2021/03/26 00:05:21;;;;;;;18.65;9.85;;;;;;;4.59;100.00;96548.88;1036342;28;20383;-58
2021/03/26 00:05:55;;;;;;;17.83;9.77;;;;;;;4.58;100.00;96547.22;1040307;28;20021;-56
2021/03/26 00:06:29;;;;;;;18.58;9.23;;;;;;;4.60;100.00;96549.69;1036179;28;20010;-59
2021/03/26 00:07:00;;;;;;;15.25;8.25;;;;;;;4.60;100.00;96555.81;1036100;28;20487;-58
2021/03/26 00:07:31;;;;;;;17.33;9.43;;;;;;;4.61;100.00;96554.03;1036402;28;20076;-58
2021/03/26 00:08:03;;;;;;;22.73;9.60;;;;;;;4.62;100.00;96540.75;1032227;28;20483;-58
2021/03/26 00:08:34;;;;;;;18.60;9.63;;;;;;;4.60;100.00;96547.94;1032275;28;20017;-59
2021/03/26 00:09:06;;;;;;;18.27;9.73;;;;;;;4.59;100.00;96543.63;1036164;28;20017;-58
2021/03/26 00:09:37;;;;;;;19.40;8.40;;;;;;;4.61;100.00;96544.31;1036287;28;20494;-57
2021/03/26 00:10:09;;;;;;;19.48;9.55;;;;;;;4.60;100.00;96540.03;1028184;28;20046;-60
2021/03/26 00:10:41;;;;;;;17.80;9.57;;;;;;;4.59;100.00;96541.00;1036200;28;20021;-59
2021/03/26 00:11:11;;;;;;;20.67;9.00;;;;;;;4.54;100.00;96540.53;1036155;28;20112;-59
2021/03/26 00:11:42;;;;;;;22.95;10.10;;;;;;;4.58;100.00;96538.47;1028173;28;20010;-58
2021/03/26 00:12:14;;;;;;;22.80;9.95;;;;;;;4.56;100.00;96543.84;1036235;28;20014;-58
2021/03/26 00:12:45;;;;;;;17.33;10.05;;;;;;;4.56;100.00;96543.84;1048581;28;20012;-57
2021/03/26 00:13:15;;;;;;;18.17;10.00;;;;;;;4.55;100.00;96546.63;1036085;28;20021;-58
2021/03/26 00:13:46;;;;;;;16.83;9.30;;;;;;;4.53;100.00;96544.97;1036036;28;20113;-58
2021/03/26 00:14:17;;;;;;;20.83;9.48;;;;;;;4.50;100.00;96542.56;1036320;28;20021;-59
2021/03/26 00:14:48;;;;;;;21.20;10.27;;;;;;;4.49;100.00;96548.81;1036319;28;20010;-58
2021/03/26 00:15:19;;;;;;;17.70;9.43;;;;;;;4.50;100.00;96542.56;1036142;28;20475;-57
2021/03/26 00:15:49;;;;;;;19.95;9.65;;;;;;;4.48;100.00;96551.56;1032213;28;20013;-58
2021/03/26 00:16:20;;;;;;;21.50;10.18;;;;;;;4.48;100.00;96543.66;1036238;28;20018;-58
2021/03/26 00:16:51;;;;;;;23.52;10.15;;;;;;;4.46;100.00;96542.91;1036278;28;20018;-57
2021/03/26 00:17:21;;;;;;;21.48;10.43;;;;;;;4.45;100.00;96541.28;1036201;28;20017;-57
2021/03/26 00:17:52;;;;;;;19.75;9.73;;;;;;;4.43;100.00;96541.38;1036241;28;20572;-58
2021/03/26 00:18:23;;;;;;;17.85;9.80;;;;;;;4.42;100.00;96544.13;1036199;28;20010;-57
2021/03/26 00:18:54;;;;;;;19.83;10.30;;;;;;;4.38;100.00;96551.44;1036339;28;20082;-56
2021/03/26 00:19:24;;;;;;;19.67;10.15;;;;;;;4.37;100.00;96539.25;1032041;28;20125;-57
2021/03/26 00:19:55;;;;;;;20.65;9.68;;;;;;;4.37;100.00;96543.66;1032193;28;20057;-57
2021/03/26 00:20:26;;;;;;;19.77;10.43;;;;;;;4.37;100.00;96546.31;1032157;28;20527;-57
2021/03/26 00:20:56;;;;;;;18.80;9.10;;;;;;;4.35;100.00;96549.03;1040258;28;20036;-57
2021/03/26 00:21:27;;;;;;;19.25;8.75;;;;;;;4.38;100.00;96537.47;1032179;28;20019;-58
2021/03/26 00:21:58;;;;;;;19.40;9.30;;;;;;;4.37;100.00;96538.41;1036342;28;20017;-56
2021/03/26 00:22:28;;;;;;;19.90;9.73;;;;;;;4.36;100.00;96537.59;1040225;28;20013;-58
2021/03/26 00:22:59;;;;;;;17.83;9.30;;;;;;;4.38;100.00;96540.09;1032114;28;20024;-59
2021/03/26 00:23:30;;;;;;;21.13;9.77;;;;;;;4.26;100.00;96524.31;1040209;28;20029;-57
2021/03/26 00:24:00;;;;;;;18.85;10.05;;;;;;;4.27;100.00;96526.00;1036095;28;20072;-58
2021/03/26 00:24:31;;;;;;;18.70;9.95;;;;;;;4.36;100.00;96540.22;1044436;28;20494;-58
2021/03/26 00:25:03;;;;;;;18.23;9.95;;;;;;;4.36;100.00;96534.13;1040257;28;20282;-58
2021/03/26 00:25:34;;;;;;;15.60;9.32;;;;;;;4.37;100.00;96530.53;1036144;28;20028;-58
2021/03/26 00:26:05;;;;;;;17.67;9.93;;;;;;;4.33;100.00;96533.41;1040253;28;20021;-59
2021/03/26 00:26:36;;;;;;;19.83;10.52;;;;;;;4.36;100.00;96542.03;1040283;28;20422;-58
2021/03/26 00:27:06;;;;;;;22.80;10.13;;;;;;;4.36;100.00;96537.59;1032268;28;20105;-59
2021/03/26 00:27:37;;;;;;;21.17;10.10;;;;;;;4.32;100.00;96537.00;1040234;28;20025;-58
2021/03/26 00:28:08;;;;;;;17.13;8.82;;;;;;;4.34;100.00;96534.25;1036249;28;20566;-58
2021/03/26 00:28:39;;;;;;;18.10;9.80;;;;;;;4.23;100.00;96526.38;1036236;28;20021;-60
2021/03/26 00:29:16;;;;;;;17.98;9.68;;;;;;;4.31;100.00;96532.69;1032176;28;20018;-58
2021/03/26 00:29:47;;;;;;;19.40;9.27;;;;;;;4.29;100.00;96542.50;1032182;28;20029;-58
2021/03/26 00:30:18;;;;;;;19.70;10.10;;;;;;;4.31;100.00;96545.00;1032087;28;20511;-59
2021/03/26 00:30:49;;;;;;;19.33;9.77;;;;;;;4.29;100.00;96545.13;1031792;28;20023;-58
2021/03/26 00:31:20;;;;;;;19.30;9.73;;;;;;;4.29;100.00;96547.75;1040197;28;20156;-58
2021/03/26 00:31:51;;;;;;;18.85;9.65;;;;;;;4.29;100.00;96542.50;1036071;28;20560;-59
2021/03/26 00:32:21;;;;;;;19.55;9.40;;;;;;;4.28;100.00;96550.50;1040246;28;20033;-57
2021/03/26 00:32:52;;;;;;;19.23;9.88;;;;;;;4.29;100.00;96547.75;1036221;28;20022;-59
2021/03/26 00:33:23;;;;;;;19.52;10.50;;;;;;;4.29;100.00;96553.00;1040334;28;20453;-59
2021/03/26 00:33:53;;;;;;;19.02;10.00;;;;;;;4.32;100.00;96544.06;1035936;28;20032;-58
2021/03/26 00:34:24;;;;;;;19.77;10.32;;;;;;;4.33;100.00;96554.44;1036104;28;20046;-58
2021/03/26 00:34:55;;;;;;;20.15;9.95;;;;;;;4.36;100.00;96549.91;1040158;28;20021;-59
2021/03/26 00:35:26;;;;;;;17.10;9.30;;;;;;;4.37;100.00;96548.94;1028110;28;20030;-57
2021/03/26 00:35:57;;;;;;;24.85;10.68;;;;;;;4.37;100.00;96555.00;1032003;28;20574;-58
2021/03/26 00:36:30;;;;;;;20.15;9.48;;;;;;;4.39;100.00;96547.88;1028236;28;20074;-59
2021/03/26 00:37:01;;;;;;;21.13;10.18;;;;;;;4.45;100.00;96557.88;1028204;28;20023;-57
2021/03/26 00:37:32;;;;;;;23.25;10.85;;;;;;;4.49;100.00;96558.47;1032136;28;20113;-59
2021/03/26 00:38:03;;;;;;;19.48;9.48;;;;;;;4.54;100.00;96564.19;1031946;28;20018;-58
2021/03/26 00:38:33;;;;;;;20.58;10.65;;;;;;;4.57;100.00;96560.50;1028053;28;20031;-59
2021/03/26 00:39:06;;;;;;;21.92;10.40;;;;;;;4.55;100.00;96568.50;1032141;28;20026;-58
2021/03/26 00:39:36;;;;;;;18.73;9.35;;;;;;;4.55;100.00;96570.31;1036174;28;20018;-57
2021/03/26 00:40:09;;;;;;;19.80;10.38;;;;;;;4.60;100.00;96568.97;1032049;28;20114;-58
2021/03/26 00:40:41;;;;;;;20.45;9.95;;;;;;;4.62;100.00;96571.47;1036179;28;20499;-58
2021/03/26 00:41:11;;;;;;;20.52;10.23;;;;;;;4.63;100.00;96565.25;1032052;28;20022;-59
2021/03/26 00:41:42;;;;;;;18.38;9.13;;;;;;;4.66;100.00;96568.47;1032134;28;20019;-58
2021/03/26 00:42:13;;;;;;;19.27;9.80;;;;;;;4.70;100.00;96563.78;1032052;28;20480;-57
2021/03/26 00:42:44;;;;;;;19.73;9.70;;;;;;;4.76;100.00;96567.75;1036236;28;20018;-57
2021/03/26 00:43:15;;;;;;;21.48;10.10;;;;;;;4.82;100.00;96569.84;1036083;28;20029;-57
2021/03/26 00:43:46;;;;;;;20.52;10.52;;;;;;;4.84;100.00;96558.25;1035965;28;20018;-58
2021/03/26 00:44:17;;;;;;;18.65;9.55;;;;;;;4.87;100.00;96559.78;1036146;28;20033;-57
2021/03/26 00:44:48;;;;;;;17.55;10.18;;;;;;;4.88;100.00;96562.31;1036287;28;20017;-57
2021/03/26 00:45:22;;;;;;;20.48;10.68;;;;;;;4.92;100.00;96555.00;1036500;28;20407;-57
2021/03/26 00:45:53;;;;;;;22.20;9.85;;;;;;;4.90;100.00;96556.91;1040765;28;20025;-59
2021/03/26 00:46:24;;;;;;;18.83;9.57;;;;;;;4.89;100.00;96556.09;1032442;28;20014;-58
2021/03/26 00:46:55;;;;;;;21.17;11.38;;;;;;;4.93;100.00;96551.41;1036576;28;20018;-56
2021/03/26 00:47:26;;;;;;;19.73;11.15;;;;;;;4.98;100.00;96549.25;1032598;28;20054;-56
2021/03/26 00:47:57;;;;;;;21.08;9.77;;;;;;;4.94;100.00;96549.59;1036658;28;20568;-57
2021/03/26 00:48:28;;;;;;;16.80;9.73;;;;;;;5.01;100.00;96548.13;1032545;28;20019;-58
2021/03/26 00:48:59;;;;;;;22.25;10.25;;;;;;;4.94;100.00;96553.06;1028825;28;20022;-56
2021/03/26 00:49:30;;;;;;;19.83;10.40;;;;;;;4.88;100.00;96541.25;1032585;28;20568;-58
2021/03/26 00:50:00;;;;;;;18.60;10.20;;;;;;;4.98;100.00;96551.00;1036741;28;20041;-57
2021/03/26 00:50:34;;;;;;;18.48;10.00;;;;;;;4.70;100.00;96509.41;1032405;28;20465;-57
2021/03/26 00:51:05;;;;;;;22.45;10.00;;;;;;;4.99;100.00;96547.44;1032852;28;20021;-57
2021/03/26 00:51:36;;;;;;;21.48;10.45;;;;;;;5.03;100.00;96552.31;1032127;28;20025;-59
2021/03/26 00:52:07;;;;;;;19.00;9.55;;;;;;;4.94;100.00;96531.19;1032160;28;20021;-60
2021/03/26 00:52:38;;;;;;;17.88;10.10;;;;;;;5.05;100.00;96544.28;1036008;28;20018;-58
2021/03/26 00:53:11;;;;;;;21.63;11.07;;;;;;;5.06;100.00;96551.22;1036315;28;20515;-57
2021/03/26 00:53:42;;;;;;;20.85;10.40;;;;;;;5.09;100.00;96546.53;1035912;28;20014;-57
2021/03/26 00:54:16;;;;;;;20.23;9.88;;;;;;;5.06;100.00;96541.53;1036122;28;20104;-57
2021/03/26 00:54:46;;;;;;;20.10;9.50;;;;;;;5.08;100.00;96544.84;1031994;28;20026;-58
2021/03/26 00:55:17;;;;;;;18.95;9.82;;;;;;;5.12;100.00;96539.34;1032197;28;20022;-57
2021/03/26 00:55:48;;;;;;;17.90;9.55;;;;;;;5.16;100.00;96540.78;1032044;28;20015;-57
2021/03/26 00:56:19;;;;;;;18.25;9.60;;;;;;;5.08;100.00;96534.31;1032100;28;20120;-58
2021/03/26 00:56:50;;;;;;;20.98;10.00;;;;;;;5.13;100.00;96535.75;1032013;28;20022;-59
2021/03/26 00:57:21;;;;;;;22.90;10.40;;;;;;;5.05;100.00;96528.47;1032186;28;20496;-58
2021/03/26 00:57:51;;;;;;;21.83;10.43;;;;;;;5.10;100.00;96535.06;1040148;28;20136;-58
2021/03/26 00:58:22;;;;;;;19.60;10.27;;;;;;;5.04;100.00;96526.84;1031986;28;20045;-59
2021/03/26 00:58:53;;;;;;;17.77;9.23;;;;;;;5.01;100.00;96530.53;1027871;28;20029;-59
2021/03/26 00:59:24;;;;;;;17.58;8.90;;;;;;;5.03;100.00;96528.63;1032000;28;20022;-59
2021/03/26 00:59:54;;;;;;;18.30;9.93;;;;;;;5.00;100.00;96518.34;1032055;28;20113;-58
2021/03/26 01:00:26;;;;;;;21.73;9.95;;;;;;;5.04;100.00;96519.75;1028113;28;20084;-58
2021/03/26 01:00:57;;;;;;;18.13;10.20;;;;;;;5.04;100.00;96518.94;1036087;28;20072;-58
2021/03/26 01:01:28;;;;;;;22.00;10.52;;;;;;;5.02;100.00;96516.44;1040247;28;20457;-60
2021/03/26 01:01:58;;;;;;;21.95;10.60;;;;;;;5.00;100.00;96510.47;1036051;28;20022;-59
2021/03/26 01:02:29;;;;;;;19.00;10.50;;;;;;;4.99;100.00;96511.41;1031996;28;20073;-57
2021/03/26 01:03:00;;;;;;;21.25;10.60;;;;;;;4.98;100.00;96508.91;1035919;28;20121;-58
2021/03/26 01:03:31;;;;;;;20.20;10.20;;;;;;;5.03;100.00;96501.47;1036071;28;20033;-59
2021/03/26 01:04:02;;;;;;;19.52;10.35;;;;;;;5.08;100.00;96510.63;1036047;28;20648;-58
2021/03/26 01:04:32;;;;;;;18.92;10.18;;;;;;;5.08;100.00;96508.00;1036099;28;20026;-60
2021/03/26 01:05:14;;;;;;;17.65;10.38;;;;;;;5.09;100.00;96503.59;1031997;28;20113;-58
2021/03/26 01:05:49;;;;;;;18.17;9.88;;;;;;;5.04;100.00;96503.97;1027543;28;20109;-58
2021/03/26 01:06:21;;;;;;;17.75;9.35;;;;;;;5.06;100.00;96506.47;1036030;28;20025;-59
2021/03/26 01:06:51;;;;;;;18.67;9.85;;;;;;;5.06;100.00;96504.66;1036150;28;20018;-57
2021/03/26 01:07:22;;;;;;;19.60;10.25;;;;;;;5.08;100.00;96505.38;1036028;28;20117;-57
2021/03/26 01:07:53;;;;;;;18.80;10.43;;;;;;;5.10;100.00;96514.00;1035995;28;20021;-59
2021/03/26 01:08:24;;;;;;;17.08;9.90;;;;;;;5.10;100.00;96511.38;1031951;28;20088;-58
2021/03/26 01:08:54;;;;;;;20.67;9.45;;;;;;;5.04;100.00;96505.78;1032018;28;20105;-58
2021/03/26 01:09:25;;;;;;;21.85;10.70;;;;;;;5.04;100.00;96500.50;1040125;28;20112;-58
2021/03/26 01:09:56;;;;;;;18.92;10.38;;;;;;;5.04;100.00;96506.59;1036047;28;20022;-58
2021/03/26 01:10:30;;;;;;;20.60;10.98;;;;;;;5.06;100.00;96509.09;1036154;28;20022;-56
2021/03/26 01:11:05;;;;;;;23.92;10.55;;;;;;;5.04;100.00;96514.50;1036081;28;20503;-59
2021/03/26 01:11:37;;;;;;;20.77;10.30;;;;;;;5.04;100.00;96511.88;1036012;28;20022;-58
2021/03/26 01:12:09;;;;;;;19.77;10.30;;;;;;;5.04;100.00;96514.50;1030774;28;20027;-58
2021/03/26 01:12:40;;;;;;;22.30;10.93;;;;;;;5.01;100.00;96513.91;1027926;28;20105;-58
2021/03/26 01:13:11;;;;;;;20.27;9.98;;;;;;;4.99;100.00;96514.03;1032013;28;20030;-59
2021/03/26 01:13:41;;;;;;;18.92;10.05;;;;;;;4.97;100.00;96515.97;1031782;28;20037;-57
2021/03/26 01:14:15;;;;;;;17.90;9.52;;;;;;;4.95;100.00;96519.72;1032007;28;20026;-57
2021/03/26 01:14:46;;;;;;;17.50;9.15;;;;;;;4.87;100.00;96509.78;1027998;28;20022;-59
2021/03/26 01:15:18;;;;;;;18.05;10.43;;;;;;;4.94;100.00;96516.22;1032003;28;20428;-58
2021/03/26 01:15:49;;;;;;;21.67;10.90;;;;;;;4.94;100.00;96520.66;1031898;28;20456;-60
2021/03/26 01:16:20;;;;;;;21.02;9.88;;;;;;;4.93;100.00;96521.59;1036104;28;20026;-58
2021/03/26 01:16:51;;;;;;;18.05;9.48;;;;;;;4.91;100.00;96519.94;1027999;28;20029;-58
2021/03/26 01:17:21;;;;;;;19.98;10.05;;;;;;;4.92;100.00;96518.16;1032004;28;20408;-59
2021/03/26 01:17:54;;;;;;;23.95;11.48;;;;;;;4.92;100.00;96523.41;1039996;28;20120;-59
2021/03/26 01:18:29;;;;;;;21.88;10.50;;;;;;;4.89;100.00;96524.50;1036029;28;20033;-59
2021/03/26 01:19:01;;;;;;;17.98;9.88;;;;;;;4.79;100.00;96510.44;1031914;28;20511;-57
2021/03/26 01:19:38;;;;;;;19.55;10.50;;;;;;;4.81;100.00;96513.78;1040048;28;20029;-58
2021/03/26 01:20:11;;;;;;;19.40;10.52;;;;;;;4.81;100.00;96515.59;1039982;28;20077;-58
2021/03/26 01:20:42;;;;;;;20.20;10.48;;;;;;;4.69;100.00;96499.00;1035959;28;20113;-57
2021/03/26 01:21:18;;;;;;;24.55;11.27;;;;;;;4.71;100.00;96516.31;1035992;28;20026;-58
2021/03/26 01:21:49;;;;;;;20.80;10.00;;;;;;;4.70;100.00;96519.06;1032103;28;20025;-57
2021/03/26 01:22:19;;;;;;;22.42;10.55;;;;;;;4.71;100.00;96513.69;1035787;28;20399;-58
2021/03/26 01:22:50;;;;;;;19.58;10.93;;;;;;;4.69;100.00;96512.97;1040024;28;20021;-58
2021/03/26 01:23:21;;;;;;;21.40;11.18;;;;;;;4.68;100.00;96513.94;1031936;28;20038;-59
2021/03/26 01:23:52;;;;;;;19.08;10.77;;;;;;;4.68;100.00;96521.00;1035740;28;20021;-59
2021/03/26 01:24:23;;;;;;;22.35;10.63;;;;;;;4.69;100.00;96512.97;1031802;28;20030;-56
2021/03/26 01:24:53;;;;;;;21.75;10.82;;;;;;;4.70;100.00;96519.06;1031927;28;20022;-59
2021/03/26 01:25:28;;;;;;;24.45;11.77;;;;;;;4.71;100.00;96515.50;1027938;28;20389;-58
2021/03/26 01:25:59;;;;;;;19.48;10.20;;;;;;;4.68;100.00;96518.34;1035961;28;20022;-58
2021/03/26 01:26:29;;;;;;;23.05;11.63;;;;;;;4.67;100.00;96514.91;1039886;28;20045;-58
2021/03/26 01:27:00;;;;;;;22.92;10.40;;;;;;;4.65;100.00;96514.19;1036020;28;20030;-59
2021/03/26 01:27:31;;;;;;;18.95;10.35;;;;;;;4.62;100.00;96517.06;1031920;28;20024;-58
2021/03/26 01:28:03;;;;;;;22.08;10.93;;;;;;;4.60;100.00;96519.00;1031985;28;20528;-58
2021/03/26 01:28:34;;;;;;;19.25;10.10;;;;;;;4.58;100.00;96513.03;1035820;28;20017;-58
2021/03/26 01:29:05;;;;;;;21.40;12.23;;;;;;;4.58;100.00;96520.06;1040216;28;20029;-58
2021/03/26 01:29:36;;;;;;;20.70;10.70;;;;;;;4.56;100.00;96519.34;1036486;28;20376;-59
2021/03/26 01:30:09;;;;;;;25.35;11.52;;;;;;;4.33;100.00;96477.34;1032256;28;20106;-58
2021/03/26 01:30:40;;;;;;;19.85;10.73;;;;;;;4.56;100.00;96511.47;1035912;28;20046;-59
2021/03/26 01:31:11;;;;;;;22.23;10.85;;;;;;;4.56;100.00;96516.72;1031925;28;20014;-58
2021/03/26 01:31:41;;;;;;;23.42;11.75;;;;;;;4.53;100.00;96513.41;1031926;28;20058;-58
2021/03/26 01:32:12;;;;;;;21.50;11.10;;;;;;;4.53;100.00;96513.41;1035951;28;20025;-59
2021/03/26 01:32:43;;;;;;;20.13;10.95;;;;;;;4.53;100.00;96523.09;1035816;28;20120;-57
2021/03/26 01:33:14;;;;;;;27.58;12.32;;;;;;;4.52;100.00;96521.41;1031889;28;20384;-60
2021/03/26 01:33:45;;;;;;;19.70;10.38;;;;;;;4.50;100.00;96516.25;1039865;28;20054;-58
2021/03/26 01:34:15;;;;;;;24.20;11.70;;;;;;;4.50;100.00;96515.44;1031888;28;20026;-58
2021/03/26 01:34:46;;;;;;;21.23;11.07;;;;;;;4.48;100.00;96514.72;1039943;28;20091;-57
2021/03/26 01:35:17;;;;;;;22.80;11.32;;;;;;;4.47;100.00;96513.06;1031974;28;20026;-58
2021/03/26 01:35:48;;;;;;;20.95;11.35;;;;;;;4.43;100.00;96522.97;1031909;28;20022;-59
2021/03/26 01:36:19;;;;;;;25.15;11.77;;;;;;;4.44;100.00;96518.56;1031858;28;20027;-58
2021/03/26 01:36:50;;;;;;;21.40;11.38;;;;;;;4.43;100.00;96512.47;1039864;28;20116;-58
2021/03/26 01:37:21;;;;;;;21.40;11.63;;;;;;;4.43;100.00;96522.16;1039927;28;20044;-59
2021/03/26 01:37:52;;;;;;;19.50;11.35;;;;;;;4.43;100.00;96520.34;1036017;28;20025;-59
2021/03/26 01:38:23;;;;;;;23.33;11.48;;;;;;;4.42;100.00;96523.94;1031831;28;20469;-59
2021/03/26 01:38:53;;;;;;;18.90;10.65;;;;;;;4.44;100.00;96521.19;1027729;28;20018;-59
2021/03/26 01:39:24;;;;;;;23.73;11.80;;;;;;;4.44;100.00;96527.28;1035866;28;20400;-59
2021/03/26 01:39:55;;;;;;;20.50;10.55;;;;;;;4.44;100.00;96518.56;1031945;28;20015;-58
2021/03/26 01:40:28;;;;;;;20.75;11.55;;;;;;;4.44;100.00;96518.56;1031912;28;20121;-57
2021/03/26 01:41:02;;;;;;;21.20;11.65;;;;;;;4.45;100.00;96520.22;1031837;28;20021;-58
2021/03/26 01:41:36;;;;;;;20.52;11.60;;;;;;;4.46;100.00;96527.16;1040024;28;20398;-58
2021/03/26 01:42:25;;;;;;;27.02;11.55;;;;;;;4.45;100.00;96521.06;1035832;28;20057;-58
2021/03/26 01:43:08;;;;;;;26.88;12.48;;;;;;;4.46;100.00;96516.63;1039391;28;20051;-58
2021/03/26 01:43:39;;;;;;;24.20;10.85;;;;;;;4.46;100.00;96520.13;1039905;28;20047;-57
2021/03/26 01:44:10;;;;;;;22.67;11.35;;;;;;;4.49;100.00;96519.88;1031759;28;20022;-60
2021/03/26 01:44:41;;;;;;;25.42;10.52;;;;;;;4.50;100.00;96520.69;1031878;28;20026;-57
2021/03/26 01:45:16;;;;;;;24.90;12.00;;;;;;;4.50;100.00;96518.06;1035787;28;20018;-59
2021/03/26 01:45:48;;;;;;;21.08;10.90;;;;;;;4.52;100.00;96516.97;1035958;28;20022;-57
2021/03/26 01:46:20;;;;;;;19.55;11.75;;;;;;;4.52;100.00;96526.66;1035865;28;20113;-59
2021/03/26 01:46:50;;;;;;;23.50;11.18;;;;;;;4.50;100.00;96521.53;1040076;28;20026;-58
2021/03/26 01:47:21;;;;;;;23.30;11.35;;;;;;;4.50;100.00;96523.31;1035860;28;20030;-58
2021/03/26 01:47:54;;;;;;;22.85;12.05;;;;;;;4.46;100.00;96520.13;1035975;28;20025;-59
2021/03/26 01:48:29;;;;;;;19.92;10.57;;;;;;;4.47;100.00;96520.94;1035897;28;20022;-57
2021/03/26 01:49:01;;;;;;;23.75;10.77;;;;;;;4.47;100.00;96526.19;1040064;28;20025;-58
2021/03/26 01:49:32;;;;;;;22.77;11.52;;;;;;;4.44;100.00;96529.94;1039838;28;20053;-57
2021/03/26 01:50:04;;;;;;;20.02;11.23;;;;;;;4.42;100.00;96525.72;1044085;28;20131;-58
2021/03/26 01:50:38;;;;;;;22.75;11.00;;;;;;;4.36;100.00;96521.81;1044058;28;20040;-57
2021/03/26 01:51:13;;;;;;;21.02;11.95;;;;;;;4.38;100.00;96525.16;1031922;28;20026;-59
2021/03/26 01:51:46;;;;;;;25.00;11.88;;;;;;;4.33;100.00;96520.25;1035939;28;20049;-57
2021/03/26 01:52:17;;;;;;;21.75;10.70;;;;;;;4.36;100.00;96521.81;1035930;28;20022;-57
2021/03/26 01:52:48;;;;;;;21.27;11.50;;;;;;;4.34;100.00;96524.56;1044041;28;20405;-60
2021/03/26 01:53:19;;;;;;;21.63;11.30;;;;;;;4.34;100.00;96524.56;1035800;28;20059;-59
2021/03/26 01:53:50;;;;;;;22.20;10.55;;;;;;;4.36;100.00;96518.34;1031682;28;20025;-58
2021/03/26 01:54:22;;;;;;;21.98;11.05;;;;;;;4.33;100.00;96522.88;1027840;28;20037;-58
2021/03/26 01:54:53;;;;;;;20.58;11.00;;;;;;;4.36;100.00;96531.50;1035879;28;20024;-60
2021/03/26 01:55:29;;;;;;;19.98;11.20;;;;;;;4.31;100.00;96518.72;1039823;28;20108;-56
2021/03/26 01:56:00;;;;;;;20.35;11.15;;;;;;;4.28;100.00;96525.03;1031891;28;20014;-57
2021/03/26 01:56:31;;;;;;;20.63;10.38;;;;;;;4.28;100.00;96519.78;1040003;28;20025;-56
2021/03/26 01:57:01;;;;;;;20.80;11.07;;;;;;;4.29;100.00;96523.25;1031785;28;20018;-58
2021/03/26 01:57:32;;;;;;;21.48;10.85;;;;;;;4.28;100.00;96519.78;1031712;28;20049;-59
2021/03/26 01:58:03;;;;;;;19.40;10.55;;;;;;;4.25;100.00;96527.94;1031792;28;20018;-58
2021/03/26 01:58:34;;;;;;;18.77;10.30;;;;;;;4.23;100.00;96521.97;1031682;28;20018;-59
2021/03/26 01:59:05;;;;;;;21.13;11.32;;;;;;;4.23;100.00;96529.00;1028192;28;20014;-58
2021/03/26 01:59:36;;;;;;;22.20;11.15;;;;;;;4.21;100.00;96523.84;1027636;28;20473;-58
2021/03/26 02:00:09;;;;;;;18.85;10.13;;;;;;;4.15;100.00;96519.09;1027928;28;20019;-56
2021/03/26 02:00:42;;;;;;;21.95;10.52;;;;;;;4.16;100.00;96520.75;1028288;28;20015;-59
2021/03/26 02:01:25;;;;;;;21.33;10.02;;;;;;;4.17;100.00;96522.44;1036768;28;20093;-57
2021/03/26 02:01:59;;;;;;;18.33;9.48;;;;;;;4.08;100.00;96512.66;1038234;28;20014;-58
2021/03/26 02:02:30;;;;;;;22.00;10.38;;;;;;;4.15;100.00;96519.09;1035797;28;20010;-57
2021/03/26 02:03:05;;;;;;;20.80;10.65;;;;;;;4.14;100.00;96522.69;1039913;28;20116;-60
2021/03/26 02:03:37;;;;;;;21.63;10.32;;;;;;;4.12;100.00;96522.78;1039704;28;20398;-58
2021/03/26 02:04:08;;;;;;;20.83;10.02;;;;;;;4.10;100.00;96523.88;1031801;28;20037;-58
2021/03/26 02:04:41;;;;;;;18.10;9.70;;;;;;;4.11;100.00;96522.91;1035802;28;20020;-59
2021/03/26 02:05:14;;;;;;;20.02;9.40;;;;;;;4.11;100.00;96517.66;1035867;28;20068;-58
2021/03/26 02:05:45;;;;;;;20.33;10.43;;;;;;;4.08;100.00;96518.75;1035716;28;20017;-59
2021/03/26 02:06:26;;;;;;;19.35;10.32;;;;;;;4.09;100.00;96519.56;1039983;28;20017;-58
2021/03/26 02:06:57;;;;;;;19.42;10.50;;;;;;;4.11;100.00;96523.78;1044127;28;20056;-58
2021/03/26 02:07:27;;;;;;;15.43;8.68;;;;;;;4.07;100.00;96517.06;1040013;28;20021;-59
2021/03/26 02:07:58;;;;;;;19.10;10.40;;;;;;;4.08;100.00;96523.19;1031664;28;20019;-57
2021/03/26 02:08:32;;;;;;;22.05;10.05;;;;;;;4.07;100.00;96521.50;1035813;28;20502;-56
2021/03/26 02:09:09;;;;;;;17.05;9.93;;;;;;;4.06;100.00;96519.81;1035794;28;20017;-59
2021/03/26 02:09:40;;;;;;;18.08;9.85;;;;;;;4.04;100.00;96516.47;1027725;28;20019;-58
2021/03/26 02:10:11;;;;;;;16.73;8.88;;;;;;;4.02;100.00;96521.03;1035658;28;20009;-58
2021/03/26 02:10:42;;;;;;;20.35;9.38;;;;;;;3.93;100.00;96498.94;1031751;28;20014;-59
2021/03/26 02:11:19;;;;;;;18.10;10.32;;;;;;;4.00;100.00;96517.69;1035945;28;20546;-58
2021/03/26 02:12:01;;;;;;;16.80;8.95;;;;;;;4.01;100.00;96508.84;1035806;28;20014;-58
2021/03/26 02:12:31;;;;;;;19.77;9.63;;;;;;;4.01;100.00;96514.94;1031720;28;20085;-59
2021/03/26 02:13:04;;;;;;;17.35;9.68;;;;;;;3.87;100.00;96492.38;1031762;28;20022;-59
2021/03/26 02:13:35;;;;;;;20.13;9.48;;;;;;;3.99;100.00;96518.63;1043903;28;20013;-58
2021/03/26 02:14:10;;;;;;;21.40;9.82;;;;;;;3.98;100.00;96507.28;1031589;28;20026;-58
2021/03/26 02:14:44;;;;;;;18.77;9.20;;;;;;;3.91;100.00;96516.63;1031698;28;20087;-58
2021/03/26 02:15:19;;;;;;;17.77;9.40;;;;;;;3.95;100.00;96508.38;1031780;28;20014;-59
2021/03/26 02:15:50;;;;;;;16.65;9.95;;;;;;;3.94;100.00;96509.31;1033640;28;20384;-59
2021/03/26 02:16:21;;;;;;;16.92;9.52;;;;;;;3.96;100.00;96512.66;1034656;28;20097;-58
2021/03/26 02:16:52;;;;;;;17.15;8.77;;;;;;;3.93;100.00;96526.03;1035747;28;20029;-59
2021/03/26 02:17:27;;;;;;;18.88;9.55;;;;;;;3.92;100.00;96519.13;1035783;28;20028;-60
2021/03/26 02:17:57;;;;;;;16.63;9.65;;;;;;;3.94;100.00;96519.84;1031804;28;20510;-58
2021/03/26 02:18:30;;;;;;;19.20;10.27;;;;;;;3.93;100.00;96519.97;1027663;28;20021;-58
2021/03/26 02:19:01;;;;;;;17.75;9.00;;;;;;;3.92;100.00;96518.31;1027771;28;20083;-58
2021/03/26 02:19:37;;;;;;;20.67;10.18;;;;;;;3.93;100.00;96520.78;1039813;28;20035;-59
2021/03/26 02:20:10;;;;;;;22.27;9.10;;;;;;;3.94;100.00;96517.22;1035899;28;20026;-59
2021/03/26 02:20:44;;;;;;;23.10;9.63;;;;;;;3.94;100.00;96529.53;1031599;28;20019;-57
2021/03/26 02:21:17;;;;;;;16.92;9.23;;;;;;;3.91;100.00;96524.50;1035799;28;20018;-58
2021/03/26 02:21:48;;;;;;;18.65;8.85;;;;;;;3.90;100.00;96530.69;1031697;28;20032;-57
2021/03/26 02:22:20;;;;;;;17.15;9.45;;;;;;;3.90;100.00;96523.69;1035623;28;20048;-56
2021/03/26 02:22:52;;;;;;;19.98;9.80;;;;;;;3.92;100.00;96524.38;1035715;28;20475;-59
2021/03/26 02:23:24;;;;;;;17.98;9.18;;;;;;;3.92;100.00;96523.56;1031685;28;20023;-59
2021/03/26 02:23:56;;;;;;;18.75;9.93;;;;;;;3.94;100.00;96526.91;1031529;28;20073;-55
2021/03/26 02:24:27;;;;;;;19.48;9.43;;;;;;;3.92;100.00;96521.75;1032495;28;20022;-58
2021/03/26 02:24:58;;;;;;;15.60;9.05;;;;;;;3.93;100.00;96519.97;1028751;28;20029;-58
2021/03/26 02:25:29;;;;;;;19.73;9.75;;;;;;;3.95;100.00;96518.91;1032097;28;20018;-58
2021/03/26 02:26:00;;;;;;;21.30;9.70;;;;;;;3.96;100.00;96523.19;1035775;28;20028;-58
2021/03/26 02:26:37;;;;;;;16.77;9.45;;;;;;;3.96;100.00;96515.28;1031673;28;20512;-58
2021/03/26 02:27:13;;;;;;;19.40;10.27;;;;;;;3.96;100.00;96515.28;1031702;28;20069;-58
2021/03/26 02:27:44;;;;;;;15.77;8.48;;;;;;;3.89;100.00;96500.16;1031867;28;20400;-58